sensor_id;sensor_type;location;lat;lon;timestamp;P1;durP1;ratioP1;P2;durP2;ratioP2
58553;SDS011;48119;53.218;6.576;2023-03-01T00:01:21;15.35;;;10.32;;
58553;SDS011;48119;53.218;6.576;2023-03-01T00:03:49;15.98;;;10.52;;
58553;SDS011;48119;53.218;6.576;2023-03-01T00:06:19;16.77;;;11.25;;
58553;SDS011;48119;53.218;6.576;2023-03-01T00:08:46;15.13;;;10.48;;
58553;SDS011;48119;53.218;6.576;2023-03-01T00:11:17;16.75;;;11.50;;
58553;SDS011;48119;53.218;6.576;2023-03-01T00:13:49;21.45;;;12.70;;
58553;SDS011;48119;53.218;6.576;2023-03-01T00:16:18;19.27;;;12.65;;
58553;SDS011;48119;53.218;6.576;2023-03-01T00:18:49;19.45;;;13.65;;
58553;SDS011;48119;53.218;6.576;2023-03-01T00:21:25;18.92;;;11.98;;
58553;SDS011;48119;53.218;6.576;2023-03-01T00:23:52;22.08;;;13.02;;
58553;SDS011;48119;53.218;6.576;2023-03-01T00:26:19;17.05;;;12.68;;
58553;SDS011;48119;53.218;6.576;2023-03-01T00:28:49;22.52;;;14.90;;
58553;SDS011;48119;53.218;6.576;2023-03-01T00:31:22;18.15;;;12.15;;
58553;SDS011;48119;53.218;6.576;2023-03-01T00:33:51;20.13;;;12.15;;
58553;SDS011;48119;53.218;6.576;2023-03-01T00:36:22;18.45;;;11.48;;
58553;SDS011;48119;53.218;6.576;2023-03-01T00:38:49;21.48;;;14.43;;
58553;SDS011;48119;53.218;6.576;2023-03-01T00:41:24;21.77;;;13.25;;
58553;SDS011;48119;53.218;6.576;2023-03-01T00:43:53;19.92;;;12.73;;
58553;SDS011;48119;53.218;6.576;2023-03-01T00:46:21;23.80;;;13.85;;
58553;SDS011;48119;53.218;6.576;2023-03-01T00:48:48;19.02;;;13.32;;
58553;SDS011;48119;53.218;6.576;2023-03-01T00:51:16;21.10;;;13.90;;
58553;SDS011;48119;53.218;6.576;2023-03-01T00:53:44;21.20;;;14.13;;
58553;SDS011;48119;53.218;6.576;2023-03-01T00:56:16;21.30;;;13.43;;
58553;SDS011;48119;53.218;6.576;2023-03-01T00:58:45;19.75;;;13.20;;
58553;SDS011;48119;53.218;6.576;2023-03-01T01:01:16;19.58;;;12.98;;
58553;SDS011;48119;53.218;6.576;2023-03-01T01:08:23;19.02;;;14.23;;
58553;SDS011;48119;53.218;6.576;2023-03-01T01:10:52;21.38;;;13.65;;
58553;SDS011;48119;53.218;6.576;2023-03-01T01:13:21;20.45;;;13.27;;
58553;SDS011;48119;53.218;6.576;2023-03-01T01:15:49;17.85;;;12.68;;
58553;SDS011;48119;53.218;6.576;2023-03-01T01:18:15;19.13;;;13.25;;
58553;SDS011;48119;53.218;6.576;2023-03-01T01:20:41;17.17;;;13.50;;
58553;SDS011;48119;53.218;6.576;2023-03-01T01:23:06;16.40;;;12.63;;
58553;SDS011;48119;53.218;6.576;2023-03-01T01:25:34;23.23;;;14.77;;
58553;SDS011;48119;53.218;6.576;2023-03-01T01:28:02;21.38;;;13.57;;
58553;SDS011;48119;53.218;6.576;2023-03-01T01:30:28;23.55;;;14.10;;
58553;SDS011;48119;53.218;6.576;2023-03-01T01:32:54;22.25;;;14.82;;
58553;SDS011;48119;53.218;6.576;2023-03-01T01:35:20;23.55;;;13.43;;
58553;SDS011;48119;53.218;6.576;2023-03-01T01:37:46;19.27;;;14.10;;
58553;SDS011;48119;53.218;6.576;2023-03-01T01:40:12;29.17;;;15.25;;
58553;SDS011;48119;53.218;6.576;2023-03-01T01:42:38;21.33;;;14.55;;
58553;SDS011;48119;53.218;6.576;2023-03-01T01:47:53;19.30;;;13.80;;
58553;SDS011;48119;53.218;6.576;2023-03-01T01:50:20;19.15;;;14.10;;
58553;SDS011;48119;53.218;6.576;2023-03-01T01:52:47;21.13;;;14.52;;
58553;SDS011;48119;53.218;6.576;2023-03-01T01:55:16;19.33;;;14.00;;
58553;SDS011;48119;53.218;6.576;2023-03-01T01:57:56;21.33;;;14.90;;
58553;SDS011;48119;53.218;6.576;2023-03-01T02:00:27;20.20;;;14.43;;
58553;SDS011;48119;53.218;6.576;2023-03-01T02:02:55;20.92;;;14.88;;
58553;SDS011;48119;53.218;6.576;2023-03-01T02:05:34;24.38;;;15.82;;
58553;SDS011;48119;53.218;6.576;2023-03-01T02:08:15;21.10;;;14.80;;
58553;SDS011;48119;53.218;6.576;2023-03-01T02:10:44;20.83;;;14.80;;
58553;SDS011;48119;53.218;6.576;2023-03-01T02:13:11;21.90;;;15.82;;
58553;SDS011;48119;53.218;6.576;2023-03-01T02:15:37;23.85;;;15.50;;
58553;SDS011;48119;53.218;6.576;2023-03-01T02:18:06;23.92;;;15.48;;
58553;SDS011;48119;53.218;6.576;2023-03-01T02:20:34;24.52;;;16.38;;
58553;SDS011;48119;53.218;6.576;2023-03-01T02:23:13;21.52;;;15.45;;
58553;SDS011;48119;53.218;6.576;2023-03-01T02:28:22;25.92;;;16.38;;
58553;SDS011;48119;53.218;6.576;2023-03-01T02:30:53;23.13;;;15.20;;
58553;SDS011;48119;53.218;6.576;2023-03-01T02:33:38;26.25;;;16.25;;
58553;SDS011;48119;53.218;6.576;2023-03-01T02:36:06;22.85;;;15.52;;
58553;SDS011;48119;53.218;6.576;2023-03-01T02:38:36;24.70;;;16.58;;
58553;SDS011;48119;53.218;6.576;2023-03-01T02:41:02;27.45;;;16.13;;
58553;SDS011;48119;53.218;6.576;2023-03-01T02:43:30;24.38;;;15.75;;
58553;SDS011;48119;53.218;6.576;2023-03-01T02:45:59;20.92;;;15.07;;
58553;SDS011;48119;53.218;6.576;2023-03-01T02:48:38;22.30;;;15.48;;
58553;SDS011;48119;53.218;6.576;2023-03-01T02:57:06;19.15;;;13.52;;
58553;SDS011;48119;53.218;6.576;2023-03-01T02:59:34;21.80;;;14.57;;
58553;SDS011;48119;53.218;6.576;2023-03-01T03:02:08;22.20;;;15.25;;
58553;SDS011;48119;53.218;6.576;2023-03-01T03:07:31;19.88;;;14.07;;
58553;SDS011;48119;53.218;6.576;2023-03-01T03:10:00;21.23;;;14.45;;
58553;SDS011;48119;53.218;6.576;2023-03-01T03:12:26;18.98;;;14.30;;
58553;SDS011;48119;53.218;6.576;2023-03-01T03:14:52;20.83;;;14.00;;
58553;SDS011;48119;53.218;6.576;2023-03-01T03:17:18;22.58;;;14.38;;
58553;SDS011;48119;53.218;6.576;2023-03-01T03:19:44;20.23;;;14.10;;
58553;SDS011;48119;53.218;6.576;2023-03-01T03:22:11;24.88;;;16.02;;
58553;SDS011;48119;53.218;6.576;2023-03-01T03:24:37;21.15;;;14.85;;
58553;SDS011;48119;53.218;6.576;2023-03-01T03:27:06;22.95;;;14.73;;
58553;SDS011;48119;53.218;6.576;2023-03-01T03:29:32;20.95;;;14.05;;
58553;SDS011;48119;53.218;6.576;2023-03-01T03:31:58;19.73;;;14.15;;
58553;SDS011;48119;53.218;6.576;2023-03-01T03:34:24;20.67;;;14.73;;
58553;SDS011;48119;53.218;6.576;2023-03-01T03:36:53;23.80;;;14.35;;
58553;SDS011;48119;53.218;6.576;2023-03-01T03:39:24;23.05;;;14.27;;
58553;SDS011;48119;53.218;6.576;2023-03-01T03:41:52;22.58;;;14.35;;
58553;SDS011;48119;53.218;6.576;2023-03-01T03:44:18;22.23;;;14.38;;
58553;SDS011;48119;53.218;6.576;2023-03-01T03:46:45;21.08;;;14.10;;
58553;SDS011;48119;53.218;6.576;2023-03-01T03:49:10;26.45;;;15.63;;
58553;SDS011;48119;53.218;6.576;2023-03-01T03:51:36;22.52;;;14.85;;
58553;SDS011;48119;53.218;6.576;2023-03-01T03:54:02;21.75;;;14.32;;
58553;SDS011;48119;53.218;6.576;2023-03-01T03:56:27;22.17;;;14.98;;
58553;SDS011;48119;53.218;6.576;2023-03-01T03:58:53;22.50;;;15.13;;
58553;SDS011;48119;53.218;6.576;2023-03-01T04:01:19;25.95;;;15.20;;
58553;SDS011;48119;53.218;6.576;2023-03-01T04:03:45;22.55;;;14.70;;
58553;SDS011;48119;53.218;6.576;2023-03-01T04:06:14;20.23;;;14.10;;
58553;SDS011;48119;53.218;6.576;2023-03-01T04:08:40;22.08;;;13.80;;
58553;SDS011;48119;53.218;6.576;2023-03-01T04:11:06;22.38;;;14.68;;
58553;SDS011;48119;53.218;6.576;2023-03-01T04:13:51;21.20;;;14.27;;
58553;SDS011;48119;53.218;6.576;2023-03-01T04:16:18;19.45;;;13.95;;
58553;SDS011;48119;53.218;6.576;2023-03-01T04:18:44;21.52;;;15.20;;
58553;SDS011;48119;53.218;6.576;2023-03-01T04:21:10;20.55;;;14.15;;
58553;SDS011;48119;53.218;6.576;2023-03-01T04:23:36;21.27;;;14.73;;
58553;SDS011;48119;53.218;6.576;2023-03-01T04:26:03;20.10;;;13.52;;
58553;SDS011;48119;53.218;6.576;2023-03-01T04:28:36;20.05;;;13.82;;
58553;SDS011;48119;53.218;6.576;2023-03-01T04:31:09;20.23;;;13.65;;
58553;SDS011;48119;53.218;6.576;2023-03-01T04:33:44;15.20;;;10.70;;
58553;SDS011;48119;53.218;6.576;2023-03-01T04:36:12;16.98;;;10.40;;
58553;SDS011;48119;53.218;6.576;2023-03-01T04:38:39;13.55;;;9.65;;
58553;SDS011;48119;53.218;6.576;2023-03-01T04:41:06;11.50;;;8.15;;
58553;SDS011;48119;53.218;6.576;2023-03-01T04:43:33;13.77;;;8.57;;
58553;SDS011;48119;53.218;6.576;2023-03-01T04:46:00;9.60;;;7.22;;
58553;SDS011;48119;53.218;6.576;2023-03-01T04:48:31;12.18;;;7.50;;
58553;SDS011;48119;53.218;6.576;2023-03-01T04:50:58;10.50;;;7.18;;
58553;SDS011;48119;53.218;6.576;2023-03-01T04:53:24;11.85;;;6.95;;
58553;SDS011;48119;53.218;6.576;2023-03-01T04:55:51;8.82;;;6.53;;
58553;SDS011;48119;53.218;6.576;2023-03-01T04:58:16;8.35;;;6.13;;
58553;SDS011;48119;53.218;6.576;2023-03-01T05:00:42;8.32;;;6.28;;
58553;SDS011;48119;53.218;6.576;2023-03-01T05:03:08;9.07;;;6.28;;
58553;SDS011;48119;53.218;6.576;2023-03-01T05:05:35;8.07;;;5.70;;
58553;SDS011;48119;53.218;6.576;2023-03-01T05:08:03;8.57;;;5.63;;
58553;SDS011;48119;53.218;6.576;2023-03-01T05:10:30;9.35;;;6.22;;
58553;SDS011;48119;53.218;6.576;2023-03-01T05:12:58;7.90;;;5.93;;
58553;SDS011;48119;53.218;6.576;2023-03-01T05:15:27;6.95;;;5.65;;
58553;SDS011;48119;53.218;6.576;2023-03-01T05:17:56;8.18;;;5.97;;
58553;SDS011;48119;53.218;6.576;2023-03-01T05:20:26;7.45;;;5.68;;
58553;SDS011;48119;53.218;6.576;2023-03-01T05:22:57;8.63;;;5.95;;
58553;SDS011;48119;53.218;6.576;2023-03-01T05:25:24;10.43;;;6.40;;
58553;SDS011;48119;53.218;6.576;2023-03-01T05:27:50;8.70;;;5.93;;
58553;SDS011;48119;53.218;6.576;2023-03-01T05:30:16;7.18;;;5.43;;
58553;SDS011;48119;53.218;6.576;2023-03-01T05:32:43;8.75;;;5.70;;
58553;SDS011;48119;53.218;6.576;2023-03-01T05:35:15;8.90;;;5.75;;
58553;SDS011;48119;53.218;6.576;2023-03-01T05:37:43;9.93;;;6.05;;
58553;SDS011;48119;53.218;6.576;2023-03-01T05:40:12;7.25;;;5.47;;
58553;SDS011;48119;53.218;6.576;2023-03-01T05:42:43;7.95;;;5.10;;
58553;SDS011;48119;53.218;6.576;2023-03-01T05:45:19;7.57;;;5.00;;
58553;SDS011;48119;53.218;6.576;2023-03-01T05:47:46;8.55;;;5.72;;
58553;SDS011;48119;53.218;6.576;2023-03-01T05:50:15;7.57;;;5.47;;
58553;SDS011;48119;53.218;6.576;2023-03-01T05:52:46;7.55;;;5.63;;
58553;SDS011;48119;53.218;6.576;2023-03-01T05:55:13;7.82;;;5.45;;
58553;SDS011;48119;53.218;6.576;2023-03-01T05:57:40;7.55;;;6.32;;
58553;SDS011;48119;53.218;6.576;2023-03-01T06:00:07;10.35;;;7.38;;
58553;SDS011;48119;53.218;6.576;2023-03-01T06:02:33;8.95;;;6.28;;
58553;SDS011;48119;53.218;6.576;2023-03-01T06:04:59;8.88;;;6.72;;
58553;SDS011;48119;53.218;6.576;2023-03-01T06:07:25;11.45;;;7.63;;
58553;SDS011;48119;53.218;6.576;2023-03-01T06:09:50;9.40;;;6.40;;
58553;SDS011;48119;53.218;6.576;2023-03-01T06:12:16;10.80;;;6.90;;
58553;SDS011;48119;53.218;6.576;2023-03-01T06:14:42;8.43;;;6.38;;
58553;SDS011;48119;53.218;6.576;2023-03-01T06:17:09;11.95;;;6.00;;
58553;SDS011;48119;53.218;6.576;2023-03-01T06:19:35;11.18;;;6.82;;
58553;SDS011;48119;53.218;6.576;2023-03-01T06:22:01;10.05;;;6.43;;
58553;SDS011;48119;53.218;6.576;2023-03-01T06:24:27;11.88;;;7.28;;
58553;SDS011;48119;53.218;6.576;2023-03-01T06:26:53;8.13;;;6.05;;
58553;SDS011;48119;53.218;6.576;2023-03-01T06:29:19;12.13;;;6.97;;
58553;SDS011;48119;53.218;6.576;2023-03-01T06:31:45;10.75;;;7.80;;
58553;SDS011;48119;53.218;6.576;2023-03-01T06:34:11;12.05;;;7.93;;
58553;SDS011;48119;53.218;6.576;2023-03-01T06:36:38;12.13;;;7.95;;
58553;SDS011;48119;53.218;6.576;2023-03-01T06:39:05;11.50;;;8.10;;
58553;SDS011;48119;53.218;6.576;2023-03-01T06:41:32;12.25;;;8.57;;
58553;SDS011;48119;53.218;6.576;2023-03-01T06:43:58;13.75;;;10.05;;
58553;SDS011;48119;53.218;6.576;2023-03-01T06:46:24;13.45;;;8.85;;
58553;SDS011;48119;53.218;6.576;2023-03-01T06:48:50;13.43;;;9.18;;
58553;SDS011;48119;53.218;6.576;2023-03-01T06:51:16;12.82;;;9.88;;
58553;SDS011;48119;53.218;6.576;2023-03-01T06:53:41;11.93;;;9.48;;
58553;SDS011;48119;53.218;6.576;2023-03-01T06:56:07;14.30;;;9.13;;
58553;SDS011;48119;53.218;6.576;2023-03-01T06:58:33;15.77;;;10.00;;
58553;SDS011;48119;53.218;6.576;2023-03-01T07:00:59;13.15;;;9.95;;
58553;SDS011;48119;53.218;6.576;2023-03-01T07:03:24;15.05;;;10.48;;
58553;SDS011;48119;53.218;6.576;2023-03-01T07:05:50;17.42;;;9.95;;
58553;SDS011;48119;53.218;6.576;2023-03-01T07:08:19;14.40;;;10.32;;
58553;SDS011;48119;53.218;6.576;2023-03-01T07:10:45;19.13;;;12.82;;
58553;SDS011;48119;53.218;6.576;2023-03-01T07:13:10;17.60;;;12.02;;
58553;SDS011;48119;53.218;6.576;2023-03-01T07:15:36;15.82;;;11.75;;
58553;SDS011;48119;53.218;6.576;2023-03-01T07:18:02;17.17;;;10.88;;
58553;SDS011;48119;53.218;6.576;2023-03-01T07:20:28;18.40;;;11.68;;
58553;SDS011;48119;53.218;6.576;2023-03-01T07:22:54;18.70;;;12.18;;
58553;SDS011;48119;53.218;6.576;2023-03-01T07:25:21;14.93;;;10.90;;
58553;SDS011;48119;53.218;6.576;2023-03-01T07:27:50;13.70;;;10.30;;
58553;SDS011;48119;53.218;6.576;2023-03-01T07:30:17;15.18;;;11.27;;
58553;SDS011;48119;53.218;6.576;2023-03-01T07:32:43;20.55;;;12.85;;
58553;SDS011;48119;53.218;6.576;2023-03-01T07:35:10;20.25;;;13.20;;
58553;SDS011;48119;53.218;6.576;2023-03-01T07:37:36;19.17;;;13.10;;
58553;SDS011;48119;53.218;6.576;2023-03-01T07:40:02;17.58;;;13.00;;
58553;SDS011;48119;53.218;6.576;2023-03-01T07:42:28;19.83;;;12.63;;
58553;SDS011;48119;53.218;6.576;2023-03-01T07:44:54;19.33;;;13.20;;
58553;SDS011;48119;53.218;6.576;2023-03-01T07:47:19;19.65;;;13.32;;
58553;SDS011;48119;53.218;6.576;2023-03-01T07:49:45;22.88;;;14.75;;
58553;SDS011;48119;53.218;6.576;2023-03-01T07:52:11;21.30;;;14.48;;
58553;SDS011;48119;53.218;6.576;2023-03-01T07:54:37;26.45;;;16.60;;
58553;SDS011;48119;53.218;6.576;2023-03-01T07:57:03;24.33;;;15.00;;
58553;SDS011;48119;53.218;6.576;2023-03-01T07:59:29;21.90;;;14.55;;
58553;SDS011;48119;53.218;6.576;2023-03-01T08:01:55;23.15;;;15.57;;
58553;SDS011;48119;53.218;6.576;2023-03-01T08:04:22;22.90;;;15.77;;
58553;SDS011;48119;53.218;6.576;2023-03-01T08:06:49;30.45;;;16.60;;
58553;SDS011;48119;53.218;6.576;2023-03-01T08:09:16;25.45;;;17.30;;
58553;SDS011;48119;53.218;6.576;2023-03-01T08:11:41;26.25;;;17.10;;
58553;SDS011;48119;53.218;6.576;2023-03-01T08:14:07;26.23;;;16.98;;
58553;SDS011;48119;53.218;6.576;2023-03-01T08:16:33;27.10;;;17.08;;
58553;SDS011;48119;53.218;6.576;2023-03-01T08:19:06;29.25;;;18.17;;
58553;SDS011;48119;53.218;6.576;2023-03-01T08:21:35;29.83;;;17.48;;
58553;SDS011;48119;53.218;6.576;2023-03-01T08:24:02;29.38;;;18.42;;
58553;SDS011;48119;53.218;6.576;2023-03-01T08:26:29;33.85;;;19.52;;
58553;SDS011;48119;53.218;6.576;2023-03-01T08:28:55;29.52;;;19.10;;
58553;SDS011;48119;53.218;6.576;2023-03-01T08:31:22;29.48;;;20.40;;
58553;SDS011;48119;53.218;6.576;2023-03-01T08:33:52;31.65;;;19.35;;
58553;SDS011;48119;53.218;6.576;2023-03-01T08:36:21;27.08;;;18.33;;
58553;SDS011;48119;53.218;6.576;2023-03-01T08:38:48;30.40;;;20.35;;
58553;SDS011;48119;53.218;6.576;2023-03-01T08:41:13;35.65;;;21.35;;
58553;SDS011;48119;53.218;6.576;2023-03-01T08:43:39;32.28;;;20.75;;
58553;SDS011;48119;53.218;6.576;2023-03-01T08:46:05;33.97;;;21.55;;
58553;SDS011;48119;53.218;6.576;2023-03-01T08:48:31;34.00;;;20.83;;
58553;SDS011;48119;53.218;6.576;2023-03-01T08:50:57;14.85;;;9.02;;
58553;SDS011;48119;53.218;6.576;2023-03-01T08:53:32;32.77;;;19.27;;
58553;SDS011;48119;53.218;6.576;2023-03-01T08:55:59;31.35;;;20.45;;
58553;SDS011;48119;53.218;6.576;2023-03-01T08:58:27;33.05;;;20.35;;
58553;SDS011;48119;53.218;6.576;2023-03-01T09:00:53;29.77;;;19.00;;
58553;SDS011;48119;53.218;6.576;2023-03-01T09:03:20;32.20;;;18.95;;
58553;SDS011;48119;53.218;6.576;2023-03-01T09:05:46;34.40;;;20.65;;
58553;SDS011;48119;53.218;6.576;2023-03-01T09:08:12;29.77;;;19.42;;
58553;SDS011;48119;53.218;6.576;2023-03-01T09:10:38;31.77;;;20.70;;
58553;SDS011;48119;53.218;6.576;2023-03-01T09:13:04;36.00;;;20.55;;
58553;SDS011;48119;53.218;6.576;2023-03-01T09:15:30;35.92;;;20.27;;
58553;SDS011;48119;53.218;6.576;2023-03-01T09:17:55;30.15;;;20.08;;
58553;SDS011;48119;53.218;6.576;2023-03-01T09:20:21;30.10;;;19.48;;
58553;SDS011;48119;53.218;6.576;2023-03-01T09:22:47;27.48;;;18.05;;
58553;SDS011;48119;53.218;6.576;2023-03-01T09:25:13;34.40;;;20.40;;
58553;SDS011;48119;53.218;6.576;2023-03-01T09:27:38;32.03;;;20.85;;
58553;SDS011;48119;53.218;6.576;2023-03-01T09:30:04;27.30;;;18.77;;
58553;SDS011;48119;53.218;6.576;2023-03-01T09:32:31;28.33;;;18.67;;
58553;SDS011;48119;53.218;6.576;2023-03-01T09:34:57;28.80;;;18.35;;
58553;SDS011;48119;53.218;6.576;2023-03-01T09:37:32;30.20;;;18.77;;
58553;SDS011;48119;53.218;6.576;2023-03-01T09:39:59;30.67;;;18.40;;
58553;SDS011;48119;53.218;6.576;2023-03-01T09:42:25;23.98;;;15.82;;
58553;SDS011;48119;53.218;6.576;2023-03-01T09:45:18;25.45;;;16.15;;
58553;SDS011;48119;53.218;6.576;2023-03-01T09:48:02;25.65;;;14.93;;
58553;SDS011;48119;53.218;6.576;2023-03-01T09:50:40;22.23;;;15.65;;
58553;SDS011;48119;53.218;6.576;2023-03-01T09:53:13;23.38;;;14.50;;
58553;SDS011;48119;53.218;6.576;2023-03-01T09:55:43;21.70;;;15.52;;
58553;SDS011;48119;53.218;6.576;2023-03-01T09:58:28;23.65;;;14.18;;
58553;SDS011;48119;53.218;6.576;2023-03-01T10:07:11;17.50;;;13.07;;
58553;SDS011;48119;53.218;6.576;2023-03-01T10:09:46;16.85;;;10.98;;
58553;SDS011;48119;53.218;6.576;2023-03-01T10:12:26;20.02;;;13.18;;
58553;SDS011;48119;53.218;6.576;2023-03-01T10:15:11;22.25;;;14.10;;
58553;SDS011;48119;53.218;6.576;2023-03-01T10:17:51;20.83;;;14.40;;
58553;SDS011;48119;53.218;6.576;2023-03-01T10:21:08;21.65;;;15.43;;
58553;SDS011;48119;53.218;6.576;2023-03-01T10:23:17;23.00;;;15.32;;
58553;SDS011;48119;53.218;6.576;2023-03-01T10:31:12;27.67;;;15.18;;
58553;SDS011;48119;53.218;6.576;2023-03-01T10:33:45;20.90;;;14.38;;
58553;SDS011;48119;53.218;6.576;2023-03-01T10:36:13;22.10;;;14.13;;
58553;SDS011;48119;53.218;6.576;2023-03-01T10:38:49;19.88;;;13.25;;
58553;SDS011;48119;53.218;6.576;2023-03-01T10:41:19;16.70;;;12.82;;
58553;SDS011;48119;53.218;6.576;2023-03-01T10:43:53;18.85;;;13.45;;
58553;SDS011;48119;53.218;6.576;2023-03-01T10:46:23;18.88;;;12.77;;
58553;SDS011;48119;53.218;6.576;2023-03-01T10:51:33;17.70;;;13.75;;
58553;SDS011;48119;53.218;6.576;2023-03-01T10:53:58;21.17;;;15.15;;
58553;SDS011;48119;53.218;6.576;2023-03-01T10:56:25;20.10;;;14.55;;
58553;SDS011;48119;53.218;6.576;2023-03-01T10:59:01;20.08;;;14.73;;
58553;SDS011;48119;53.218;6.576;2023-03-01T11:01:29;24.65;;;15.73;;
58553;SDS011;48119;53.218;6.576;2023-03-01T11:06:35;20.58;;;14.40;;
58553;SDS011;48119;53.218;6.576;2023-03-01T11:09:22;21.02;;;14.27;;
58553;SDS011;48119;53.218;6.576;2023-03-01T11:11:52;21.50;;;13.98;;
58553;SDS011;48119;53.218;6.576;2023-03-01T11:14:21;24.63;;;15.82;;
58553;SDS011;48119;53.218;6.576;2023-03-01T11:16:59;20.85;;;14.00;;
58553;SDS011;48119;53.218;6.576;2023-03-01T11:19:26;18.23;;;13.10;;
58553;SDS011;48119;53.218;6.576;2023-03-01T11:24:26;23.27;;;14.00;;
58553;SDS011;48119;53.218;6.576;2023-03-01T11:27:04;23.08;;;14.13;;
58553;SDS011;48119;53.218;6.576;2023-03-01T11:29:45;19.00;;;12.63;;
58553;SDS011;48119;53.218;6.576;2023-03-01T11:32:16;18.38;;;12.98;;
58553;SDS011;48119;53.218;6.576;2023-03-01T11:34:50;19.65;;;12.23;;
58553;SDS011;48119;53.218;6.576;2023-03-01T11:37:32;15.35;;;11.48;;
58553;SDS011;48119;53.218;6.576;2023-03-01T11:46:27;17.02;;;11.55;;
58553;SDS011;48119;53.218;6.576;2023-03-01T11:56:46;16.35;;;10.57;;
58553;SDS011;48119;53.218;6.576;2023-03-01T11:59:34;13.32;;;10.00;;
58553;SDS011;48119;53.218;6.576;2023-03-01T12:07:41;14.93;;;9.88;;
58553;SDS011;48119;53.218;6.576;2023-03-01T12:22:09;15.48;;;10.57;;
58553;SDS011;48119;53.218;6.576;2023-03-01T12:41:43;17.48;;;11.38;;
58553;SDS011;48119;53.218;6.576;2023-03-01T12:49:47;16.27;;;11.50;;
58553;SDS011;48119;53.218;6.576;2023-03-01T12:52:35;17.88;;;11.40;;
58553;SDS011;48119;53.218;6.576;2023-03-01T12:55:08;15.77;;;10.82;;
58553;SDS011;48119;53.218;6.576;2023-03-01T12:57:57;13.38;;;9.48;;
58553;SDS011;48119;53.218;6.576;2023-03-01T13:00:59;15.85;;;9.70;;
58553;SDS011;48119;53.218;6.576;2023-03-01T13:06:44;10.30;;;7.80;;
58553;SDS011;48119;53.218;6.576;2023-03-01T13:13:12;11.57;;;8.73;;
58553;SDS011;48119;53.218;6.576;2023-03-01T13:17:53;12.27;;;8.73;;
58553;SDS011;48119;53.218;6.576;2023-03-01T13:20:30;12.40;;;8.27;;
58553;SDS011;48119;53.218;6.576;2023-03-01T13:23:05;13.38;;;9.13;;
58553;SDS011;48119;53.218;6.576;2023-03-01T13:31:08;15.60;;;9.25;;
58553;SDS011;48119;53.218;6.576;2023-03-01T13:36:09;15.93;;;9.70;;
58553;SDS011;48119;53.218;6.576;2023-03-01T13:38:42;14.27;;;10.02;;
58553;SDS011;48119;53.218;6.576;2023-03-01T13:41:16;16.45;;;10.10;;
58553;SDS011;48119;53.218;6.576;2023-03-01T13:44:02;13.77;;;9.30;;
58553;SDS011;48119;53.218;6.576;2023-03-01T13:46:53;13.00;;;9.07;;
58553;SDS011;48119;53.218;6.576;2023-03-01T13:57:59;15.75;;;9.50;;
58553;SDS011;48119;53.218;6.576;2023-03-01T14:00:37;14.10;;;9.23;;
58553;SDS011;48119;53.218;6.576;2023-03-01T14:06:05;13.45;;;9.20;;
58553;SDS011;48119;53.218;6.576;2023-03-01T14:08:33;13.75;;;8.93;;
58553;SDS011;48119;53.218;6.576;2023-03-01T14:13:54;14.55;;;8.18;;
58553;SDS011;48119;53.218;6.576;2023-03-01T14:16:46;14.18;;;7.97;;
58553;SDS011;48119;53.218;6.576;2023-03-01T14:19:27;12.88;;;9.15;;
58553;SDS011;48119;53.218;6.576;2023-03-01T14:22:10;14.50;;;9.98;;
58553;SDS011;48119;53.218;6.576;2023-03-01T14:24:57;16.27;;;10.43;;
58553;SDS011;48119;53.218;6.576;2023-03-01T14:27:44;14.93;;;9.30;;
58553;SDS011;48119;53.218;6.576;2023-03-01T14:30:15;14.45;;;10.10;;
58553;SDS011;48119;53.218;6.576;2023-03-01T14:35:32;12.93;;;10.02;;
58553;SDS011;48119;53.218;6.576;2023-03-01T14:37:59;13.60;;;9.85;;
58553;SDS011;48119;53.218;6.576;2023-03-01T14:40:27;14.50;;;11.05;;
58553;SDS011;48119;53.218;6.576;2023-03-01T14:42:56;14.13;;;9.68;;
58553;SDS011;48119;53.218;6.576;2023-03-01T14:45:28;14.90;;;10.50;;
58553;SDS011;48119;53.218;6.576;2023-03-01T14:47:55;14.50;;;10.73;;
58553;SDS011;48119;53.218;6.576;2023-03-01T14:50:27;15.93;;;11.00;;
58553;SDS011;48119;53.218;6.576;2023-03-01T14:53:04;16.60;;;10.45;;
58553;SDS011;48119;53.218;6.576;2023-03-01T14:55:33;16.77;;;10.82;;
58553;SDS011;48119;53.218;6.576;2023-03-01T14:58:10;14.82;;;10.63;;
58553;SDS011;48119;53.218;6.576;2023-03-01T15:00:39;13.50;;;10.15;;
58553;SDS011;48119;53.218;6.576;2023-03-01T15:03:14;15.13;;;9.57;;
58553;SDS011;48119;53.218;6.576;2023-03-01T15:05:48;14.45;;;10.70;;
58553;SDS011;48119;53.218;6.576;2023-03-01T15:08:23;13.52;;;10.10;;
58553;SDS011;48119;53.218;6.576;2023-03-01T15:11:01;16.10;;;10.45;;
58553;SDS011;48119;53.218;6.576;2023-03-01T15:13:47;17.20;;;11.32;;
58553;SDS011;48119;53.218;6.576;2023-03-01T15:16:15;16.70;;;10.50;;
58553;SDS011;48119;53.218;6.576;2023-03-01T15:19:03;14.30;;;10.43;;
58553;SDS011;48119;53.218;6.576;2023-03-01T15:21:36;13.05;;;9.25;;
58553;SDS011;48119;53.218;6.576;2023-03-01T15:26:51;14.80;;;10.10;;
58553;SDS011;48119;53.218;6.576;2023-03-01T15:29:27;11.63;;;8.85;;
58553;SDS011;48119;53.218;6.576;2023-03-01T15:31:59;13.18;;;10.05;;
58553;SDS011;48119;53.218;6.576;2023-03-01T15:34:31;17.42;;;10.77;;
58553;SDS011;48119;53.218;6.576;2023-03-01T15:37:02;14.77;;;10.40;;
58553;SDS011;48119;53.218;6.576;2023-03-01T15:39:40;13.00;;;10.35;;
58553;SDS011;48119;53.218;6.576;2023-03-01T15:42:53;14.00;;;9.75;;
58553;SDS011;48119;53.218;6.576;2023-03-01T15:50:43;16.13;;;11.07;;
58553;SDS011;48119;53.218;6.576;2023-03-01T15:53:22;18.98;;;11.65;;
58553;SDS011;48119;53.218;6.576;2023-03-01T15:55:48;15.13;;;11.10;;
58553;SDS011;48119;53.218;6.576;2023-03-01T15:58:22;14.43;;;11.10;;
58553;SDS011;48119;53.218;6.576;2023-03-01T16:00:50;16.80;;;11.13;;
58553;SDS011;48119;53.218;6.576;2023-03-01T16:03:21;16.05;;;11.13;;
58553;SDS011;48119;53.218;6.576;2023-03-01T16:05:48;15.73;;;10.38;;
58553;SDS011;48119;53.218;6.576;2023-03-01T16:08:15;14.75;;;9.75;;
58553;SDS011;48119;53.218;6.576;2023-03-01T16:10:42;13.98;;;10.18;;
58553;SDS011;48119;53.218;6.576;2023-03-01T16:13:11;13.98;;;10.15;;
58553;SDS011;48119;53.218;6.576;2023-03-01T16:15:38;17.58;;;11.02;;
58553;SDS011;48119;53.218;6.576;2023-03-01T16:18:04;15.52;;;11.10;;
58553;SDS011;48119;53.218;6.576;2023-03-01T16:20:31;16.48;;;10.80;;
58553;SDS011;48119;53.218;6.576;2023-03-01T16:22:58;15.43;;;11.15;;
58553;SDS011;48119;53.218;6.576;2023-03-01T16:25:27;16.67;;;11.07;;
58553;SDS011;48119;53.218;6.576;2023-03-01T16:27:54;16.00;;;10.95;;
58553;SDS011;48119;53.218;6.576;2023-03-01T16:30:21;16.48;;;12.27;;
58553;SDS011;48119;53.218;6.576;2023-03-01T16:32:48;17.67;;;11.20;;
58553;SDS011;48119;53.218;6.576;2023-03-01T16:35:15;14.48;;;10.30;;
58553;SDS011;48119;53.218;6.576;2023-03-01T16:37:43;16.85;;;10.68;;
58553;SDS011;48119;53.218;6.576;2023-03-01T16:40:23;14.25;;;10.43;;
58553;SDS011;48119;53.218;6.576;2023-03-01T16:42:54;14.90;;;11.02;;
58553;SDS011;48119;53.218;6.576;2023-03-01T16:45:24;14.35;;;10.48;;
58553;SDS011;48119;53.218;6.576;2023-03-01T16:47:51;14.70;;;9.15;;
58553;SDS011;48119;53.218;6.576;2023-03-01T16:50:17;14.18;;;10.27;;
58553;SDS011;48119;53.218;6.576;2023-03-01T16:52:46;15.27;;;9.75;;
58553;SDS011;48119;53.218;6.576;2023-03-01T16:55:12;15.20;;;10.98;;
58553;SDS011;48119;53.218;6.576;2023-03-01T16:57:38;12.10;;;10.43;;